Ray, MI (48096)

3:10 AM EST on January 30, 2015 (GMT -0500)
26 Mile and North Ave | Change Station
CLOSE
Current Station
Personal Weather Station
Location: Macomb, MI
Elevation: 627 ft
Nearby Weather Stations

Elev 627 ft 42.71 °N, 82.88 °W | Updated 0 second ago

Overcast
Overcast
22.1 °F
Feels Like 17 °F
N
3.6
Wind Variable Wind from SW
Gusts 4.9 mph

Today
High -- | Low -- °F
--% Chance of Precip.
Yesterday
High -- | Low -- °F
Precip. -- in
7:48 AM 5:42 PM
Waxing Gibbous, 81% visible
Pressure 30.15 in
Visibility 10.0 miles
Clouds Mostly Cloudy 2500 ft
Overcast 3000 ft
Windchill 17 °F
Dew Point 10 °F
Humidity 60%
Rainfall 0.00 in
Snow Depth Not available.
UV 0.0 out of 12
Pollen .10 out of 12
Air Quality Not available.
Flu Activity Not available.
METAR KMTC 300758Z AUTO 32014G21KT 10SM UP BKN025 OVC030 M05/M10 A3011 RMK AO2 SLP208 P0000 T10531099

More Conditions Fewer Conditions

Pressure 30.15 in
Visibility 10.0 miles
Clouds Mostly Cloudy 2500 ft
Overcast 3000 ft
Windchill 17 °F
Dew Point 10 °F
Humidity 60%
Rainfall 0.00 in
Snow Depth Not available.
UV 0.0 out of 12
Pollen .10 out of 12
Air Quality Not available.
Flu Activity Not available.
METAR KMTC 300758Z AUTO 32014G21KT 10SM UP BKN025 OVC030 M05/M10 A3011 RMK AO2 SLP208 P0000 T10531099

More Conditions Fewer Conditions

10-Day Weather Forecast

Almanac

Astronomy

Jan. 30, 2015 Rise Set
Actual Time
Civil Twilight
Nautical Twilight
Astronomical Twilight
Moon
Length of Visible Light
Length of Day
Tomorrow will be .
, % of the Moon is Illuminated

Today's Extremes

State Highs State Lows

Community

WunderPhotos

Upload Photos

1,791,726 photos uploaded!

WunderBlogs® & News

Nearby

Air Quality

  Air Quality AQ Index Pollutant
Not available.

Snow Depth

Station Depth Elevation

Earthquake Activity

City Distance Mag. Time & Date
Minimum magnitude displayed is 2.5.

Coastal Water Temperatures

Place Temperature

Nearby Weather Stations